createdAt,value
2022-10-05T00:04:16.707Z,13
2022-10-05T00:09:16.221Z,13.3
2022-10-05T00:14:16.200Z,13.3
2022-10-05T00:24:25.224Z,13.3
2022-10-05T00:29:20.549Z,13.4
2022-10-05T00:34:16.890Z,14.8
2022-10-05T00:39:16.656Z,14.8
2022-10-05T00:44:16.827Z,15.7
2022-10-05T00:49:16.207Z,15.7
2022-10-05T00:54:19.235Z,13.4
2022-10-05T00:59:16.240Z,13.3
2022-10-05T01:04:16.226Z,12.9
2022-10-05T01:09:16.243Z,12.5
2022-10-05T01:14:16.258Z,12.5
2022-10-05T01:19:16.200Z,12.5
2022-10-05T01:24:16.220Z,12.5
2022-10-05T01:29:16.245Z,12.5
2022-10-05T01:34:16.210Z,12.7
2022-10-05T01:39:16.175Z,13.5
2022-10-05T01:44:16.240Z,13.5
2022-10-05T01:49:16.272Z,13.5
2022-10-05T01:54:16.216Z,13.3
2022-10-05T01:59:16.265Z,13.6
2022-10-05T02:04:37.213Z,13.6
2022-10-05T02:09:16.379Z,13.6
2022-10-05T02:14:16.234Z,13.3
2022-10-05T02:19:16.237Z,13.6
2022-10-05T02:24:16.235Z,13.6
2022-10-05T02:29:16.235Z,13.6
2022-10-05T02:34:16.198Z,13.7
2022-10-05T02:39:16.231Z,13.3
2022-10-05T02:44:16.224Z,13.3
2022-10-05T02:49:16.214Z,13.4
2022-10-05T02:54:16.256Z,13.3
2022-10-05T02:59:16.209Z,13.4
2022-10-05T03:04:16.267Z,13.7
2022-10-05T03:09:16.218Z,15.1
2022-10-05T03:14:16.266Z,15.6
2022-10-05T03:19:16.229Z,15.7
2022-10-05T03:24:16.209Z,16.1
2022-10-05T03:29:16.238Z,16.3
2022-10-05T03:34:16.265Z,16.3
2022-10-05T03:39:16.219Z,16.3
2022-10-05T03:44:16.213Z,16.8
2022-10-05T03:49:16.321Z,16.8
2022-10-05T03:54:16.205Z,16.8
2022-10-05T03:59:16.198Z,16.3
2022-10-05T04:04:16.213Z,15.7
2022-10-05T04:09:16.257Z,15.7
2022-10-05T04:14:16.515Z,15.7
2022-10-05T04:19:16.223Z,15.7
2022-10-05T04:24:16.211Z,17.5
2022-10-05T04:29:16.227Z,18.5
2022-10-05T04:34:16.231Z,20.7
2022-10-05T04:39:16.255Z,20.7
2022-10-05T04:44:16.222Z,20.7
2022-10-05T04:49:16.228Z,21.5
2022-10-05T04:54:16.250Z,22.9
2022-10-05T04:59:16.226Z,21.5
2022-10-05T05:04:16.352Z,20.4
2022-10-05T05:09:16.274Z,20.4
2022-10-05T05:14:16.292Z,20.4
2022-10-05T05:19:16.269Z,20.4
2022-10-05T05:24:16.316Z,19.6
2022-10-05T05:29:16.316Z,19
2022-10-05T05:34:16.244Z,19
2022-10-05T05:39:16.238Z,19.6
2022-10-05T05:44:16.282Z,19.6
2022-10-05T05:49:16.271Z,19.7
2022-10-05T05:54:16.247Z,20.6
2022-10-05T05:59:16.303Z,22.2
2022-10-05T06:04:16.281Z,22.7
2022-10-05T06:09:16.364Z,23.6
2022-10-05T06:14:16.262Z,25.6
2022-10-05T06:19:16.288Z,27.6
2022-10-05T06:24:16.343Z,28.8
2022-10-05T06:29:16.310Z,30.8
2022-10-05T06:34:18.187Z,30.8
2022-10-05T06:39:16.237Z,32.1
2022-10-05T06:44:16.278Z,32.1
2022-10-05T06:49:16.223Z,31.4
2022-10-05T06:54:16.309Z,32.1
2022-10-05T06:59:16.287Z,32.8
2022-10-05T07:04:16.228Z,32.8
2022-10-05T07:09:16.224Z,32.8
2022-10-05T07:14:16.292Z,32.8
2022-10-05T07:19:16.269Z,31.6
2022-10-05T07:24:16.237Z,31.6
2022-10-05T07:29:16.278Z,29.3
2022-10-05T07:34:16.377Z,27.4
2022-10-05T07:39:16.260Z,25.2
2022-10-05T07:44:16.275Z,24.5
2022-10-05T07:49:16.221Z,23.3
2022-10-05T07:54:16.263Z,23.2
2022-10-05T07:59:16.257Z,20.4
2022-10-05T08:04:16.323Z,20.3
2022-10-05T08:09:16.303Z,19.5
2022-10-05T08:14:16.218Z,17.5
2022-10-05T08:19:16.254Z,16.7
2022-10-05T08:24:16.258Z,16.1
2022-10-05T08:29:16.284Z,16
2022-10-05T08:34:16.268Z,16
2022-10-05T08:39:16.332Z,16
2022-10-05T08:44:16.360Z,15.3
2022-10-05T08:49:16.293Z,15.5
2022-10-05T08:54:16.273Z,14.2
2022-10-05T08:59:16.344Z,11.9
2022-10-05T09:04:16.314Z,15.5
2022-10-05T09:09:16.290Z,11.7
2022-10-05T09:14:16.300Z,11.7
2022-10-05T09:19:16.284Z,11.7
2022-10-05T09:24:16.248Z,9.9
2022-10-05T09:29:16.257Z,9.6
2022-10-05T09:34:16.328Z,8.7
2022-10-05T09:39:16.288Z,8.7
2022-10-05T09:44:16.267Z,7.9
2022-10-05T09:49:16.262Z,7.7
2022-10-05T09:54:16.258Z,7.7
2022-10-05T09:59:16.338Z,7.7
2022-10-05T10:04:16.599Z,6.6
2022-10-05T10:09:16.303Z,6.6
2022-10-05T10:14:16.266Z,6.6
2022-10-05T10:19:16.361Z,7.5
2022-10-05T10:24:16.271Z,7.5
2022-10-05T10:29:16.342Z,7.5
2022-10-05T10:34:16.290Z,6.9
2022-10-05T10:39:16.373Z,7.5
2022-10-05T10:44:16.275Z,7.1
2022-10-05T10:49:16.364Z,7.1
2022-10-05T10:54:16.387Z,6.9
2022-10-05T10:59:16.299Z,7.1
2022-10-05T11:04:16.320Z,7.8
2022-10-05T11:09:16.289Z,7.8
2022-10-05T11:14:16.306Z,7.1
2022-10-05T11:19:16.357Z,7.8
2022-10-05T11:24:16.290Z,6.5
2022-10-05T11:29:16.466Z,6.5
2022-10-05T11:34:16.367Z,6.5
2022-10-05T11:39:16.282Z,6.3
2022-10-05T11:44:16.342Z,6.5
2022-10-05T11:49:16.285Z,6.8
2022-10-05T11:54:16.356Z,6.3
2022-10-05T11:59:16.374Z,6.3
2022-10-05T12:04:16.408Z,6.2
2022-10-05T12:09:16.299Z,5.1
2022-10-05T12:14:16.324Z,5
2022-10-05T12:19:16.295Z,5
2022-10-05T12:24:16.372Z,5
2022-10-05T12:29:16.319Z,5
2022-10-05T12:34:16.294Z,5
2022-10-05T12:39:16.452Z,5.8
2022-10-05T12:44:16.319Z,5.8
2022-10-05T12:49:16.382Z,6
2022-10-05T12:54:16.302Z,5.8
2022-10-05T12:59:16.426Z,5.8
2022-10-05T13:04:16.308Z,5.8
2022-10-05T13:09:16.346Z,5.8
2022-10-05T13:14:16.275Z,5.5
2022-10-05T13:19:16.298Z,5.3
2022-10-05T13:24:16.279Z,5.3
2022-10-05T13:29:16.349Z,5.7
2022-10-05T13:34:16.353Z,5.3
2022-10-05T13:39:16.344Z,5.4
2022-10-05T13:44:16.335Z,5.2
2022-10-05T13:49:16.314Z,5.4
2022-10-05T13:54:16.299Z,5.5
2022-10-05T13:59:16.352Z,5.5
2022-10-05T14:04:16.367Z,5.5
2022-10-05T14:09:16.332Z,5.5
2022-10-05T14:14:16.372Z,5.8
2022-10-05T14:19:16.374Z,5.8
2022-10-05T14:24:25.769Z,5.8
2022-10-05T14:29:16.389Z,5.8
2022-10-05T14:34:16.498Z,5.3
2022-10-05T14:39:16.340Z,4.4
2022-10-05T14:44:16.339Z,4.3
2022-10-05T14:49:16.392Z,4.3
2022-10-05T14:54:16.320Z,4.4
2022-10-05T14:59:16.359Z,5.2
2022-10-05T15:04:16.372Z,5.2
2022-10-05T15:09:19.359Z,5.2
2022-10-05T15:14:16.437Z,5.3
2022-10-05T15:19:16.333Z,5.3
2022-10-05T15:24:16.364Z,5.2
2022-10-05T15:29:16.340Z,5
2022-10-05T15:34:19.773Z,5
2022-10-05T15:39:16.371Z,5
2022-10-05T15:44:16.430Z,5.3
2022-10-05T15:49:20.095Z,5.3
2022-10-05T15:54:16.355Z,6
2022-10-05T15:59:19.453Z,6.1
2022-10-05T16:04:16.372Z,6.1
2022-10-05T16:09:16.366Z,6.1
2022-10-05T16:14:16.371Z,6.1
2022-10-05T16:19:16.452Z,5.5
2022-10-05T16:24:16.346Z,5.5
2022-10-05T16:29:16.418Z,5.5
2022-10-05T16:34:16.409Z,5.5
2022-10-05T16:39:16.397Z,5.5
2022-10-05T16:44:16.386Z,5.5
2022-10-05T16:49:16.572Z,5.9
2022-10-05T16:54:16.356Z,5.9
2022-10-05T16:59:23.121Z,5.9
2022-10-05T17:04:20.036Z,5.9
2022-10-05T17:09:16.350Z,6.1
2022-10-05T17:14:16.384Z,6.1
2022-10-05T17:19:16.387Z,6.5
2022-10-05T17:24:16.432Z,6.7
2022-10-05T17:29:16.352Z,6.7
2022-10-05T17:34:16.401Z,7.2
2022-10-05T17:39:16.381Z,7.2
2022-10-05T17:44:16.459Z,7.2
2022-10-05T17:49:16.478Z,7.5
2022-10-05T17:54:16.420Z,7.5
2022-10-05T17:59:16.455Z,8
2022-10-05T18:04:16.378Z,10.4
2022-10-05T18:09:16.374Z,10.4
2022-10-05T18:14:16.391Z,12.7
2022-10-05T18:19:16.462Z,10.4
2022-10-05T18:24:16.412Z,8.7
2022-10-05T18:29:16.399Z,8.7
2022-10-05T18:34:16.415Z,9.6
2022-10-05T18:39:16.419Z,8.7
2022-10-05T18:44:16.449Z,9.3
2022-10-05T18:49:16.449Z,9.3
2022-10-05T18:54:16.522Z,9.6
2022-10-05T18:59:16.425Z,10.3
2022-10-05T19:04:16.429Z,11.5
2022-10-05T19:09:16.478Z,11.5
2022-10-05T19:14:16.431Z,11.6
2022-10-05T19:19:16.444Z,14.3
2022-10-05T19:24:16.443Z,16
2022-10-05T19:29:16.462Z,16
2022-10-05T19:34:16.610Z,16
2022-10-05T19:39:16.424Z,14.3
2022-10-05T19:44:16.412Z,11.6
2022-10-05T19:49:16.534Z,11.2
2022-10-05T19:54:16.409Z,11.2
2022-10-05T19:59:16.682Z,11.1
2022-10-05T20:04:16.484Z,11.1
2022-10-05T20:09:16.591Z,11.2
2022-10-05T20:14:16.474Z,11.6
2022-10-05T20:19:16.466Z,11.6
2022-10-05T20:24:16.516Z,12.3
2022-10-05T20:29:16.658Z,11.6
2022-10-05T20:34:16.555Z,12.3
2022-10-05T20:39:16.427Z,12.3
2022-10-05T20:44:16.522Z,12.3
2022-10-05T20:49:16.509Z,12.5
2022-10-05T20:54:16.519Z,12.3
2022-10-05T20:59:16.530Z,10.6
2022-10-05T21:04:16.561Z,15.1
2022-10-05T21:09:16.474Z,11.7
2022-10-05T21:14:16.598Z,11.7
2022-10-05T21:19:16.552Z,11.2
2022-10-05T21:24:16.525Z,9.6
2022-10-05T21:29:16.468Z,9.6
2022-10-05T21:34:16.489Z,9.6
2022-10-05T21:39:16.567Z,9.6
2022-10-05T21:44:16.486Z,9.6
2022-10-05T21:49:19.800Z,9.4
2022-10-05T21:54:16.461Z,8.6
2022-10-05T21:59:16.465Z,8.6
2022-10-05T22:04:16.519Z,9
2022-10-05T22:09:16.433Z,9.3
2022-10-05T22:14:16.654Z,9.3
2022-10-05T22:19:16.458Z,9
2022-10-05T22:24:16.458Z,9.3
2022-10-05T22:29:16.474Z,9.3
2022-10-05T22:34:16.522Z,9.3
2022-10-05T22:39:16.461Z,8.8
2022-10-05T22:44:16.468Z,7.8
2022-10-05T22:49:16.445Z,7.2
2022-10-05T22:54:16.453Z,6.8
2022-10-05T22:59:16.436Z,6.8
2022-10-05T23:04:16.459Z,6.8
2022-10-05T23:09:16.514Z,6.7
2022-10-05T23:14:16.430Z,6.9
2022-10-05T23:19:16.449Z,6.6
2022-10-05T23:24:16.462Z,6.6
2022-10-05T23:29:16.467Z,6.4
2022-10-05T23:34:16.442Z,6.4
2022-10-05T23:39:16.457Z,6.4
2022-10-05T23:44:16.421Z,6.4
2022-10-05T23:49:16.414Z,6.2
2022-10-05T23:54:16.442Z,6.4
2022-10-05T23:59:16.485Z,6.8
